Terminal Aerodrome Forecast
Issued by NWS

Home | Current Version | Previous Version | Text Only | Print | Product List | Glossary On
Versions: 1 2 3 4 5 6 7 8 9 10 11 12 13 14 15
000
FTUS45 KBOI 160520
TAFBKE
TAF
KBKE 160520Z 1606/1706 33006KT P6SM SCT060 OVC100
     FM161000 VRB05KT P6SM OVC080
     FM162100 30008KT P6SM OVC060=

USA.gov is the U.S. government's official web portal to all federal, state and local government web resources and services.